sensor_id;sensor_type;location;lat;lon;timestamp;P1;durP1;ratioP1;P2;durP2;ratioP2
51214;SDS011;41093;47.444;19.134;2022-07-03T00:00:24;9.95;;;8.95;;
51214;SDS011;41093;47.444;19.134;2022-07-03T00:02:50;9.70;;;8.70;;
51214;SDS011;41093;47.444;19.134;2022-07-03T00:05:16;9.43;;;8.63;;
51214;SDS011;41093;47.444;19.134;2022-07-03T00:07:41;10.05;;;9.07;;
51214;SDS011;41093;47.444;19.134;2022-07-03T00:10:07;10.50;;;9.45;;
51214;SDS011;41093;47.444;19.134;2022-07-03T00:12:34;9.40;;;8.60;;
51214;SDS011;41093;47.444;19.134;2022-07-03T00:14:59;10.45;;;9.55;;
51214;SDS011;41093;47.444;19.134;2022-07-03T00:17:25;9.75;;;8.82;;
51214;SDS011;41093;47.444;19.134;2022-07-03T00:19:51;10.32;;;9.43;;
51214;SDS011;41093;47.444;19.134;2022-07-03T00:22:17;10.23;;;9.32;;
51214;SDS011;41093;47.444;19.134;2022-07-03T00:24:44;9.52;;;8.63;;
51214;SDS011;41093;47.444;19.134;2022-07-03T00:27:16;10.13;;;9.18;;
51214;SDS011;41093;47.444;19.134;2022-07-03T00:29:44;10.27;;;9.38;;
51214;SDS011;41093;47.444;19.134;2022-07-03T00:32:15;10.50;;;9.38;;
51214;SDS011;41093;47.444;19.134;2022-07-03T00:34:46;10.02;;;8.93;;
51214;SDS011;41093;47.444;19.134;2022-07-03T00:37:14;10.13;;;9.13;;
51214;SDS011;41093;47.444;19.134;2022-07-03T00:39:41;10.07;;;9.27;;
51214;SDS011;41093;47.444;19.134;2022-07-03T00:42:08;9.65;;;8.73;;
51214;SDS011;41093;47.444;19.134;2022-07-03T00:44:42;10.30;;;9.40;;
51214;SDS011;41093;47.444;19.134;2022-07-03T00:47:16;10.02;;;9.05;;
51214;SDS011;41093;47.444;19.134;2022-07-03T00:49:44;9.90;;;9.00;;
51214;SDS011;41093;47.444;19.134;2022-07-03T00:52:18;10.60;;;9.52;;
51214;SDS011;41093;47.444;19.134;2022-07-03T00:54:50;10.50;;;9.52;;
51214;SDS011;41093;47.444;19.134;2022-07-03T00:57:19;9.98;;;9.15;;
51214;SDS011;41093;47.444;19.134;2022-07-03T00:59:46;10.15;;;9.15;;
51214;SDS011;41093;47.444;19.134;2022-07-03T01:02:19;10.75;;;9.75;;
51214;SDS011;41093;47.444;19.134;2022-07-03T01:04:51;9.68;;;8.77;;
51214;SDS011;41093;47.444;19.134;2022-07-03T01:10:30;10.63;;;9.55;;
51214;SDS011;41093;47.444;19.134;2022-07-03T01:13:17;10.75;;;9.85;;
51214;SDS011;41093;47.444;19.134;2022-07-03T01:15:50;11.55;;;10.25;;
51214;SDS011;41093;47.444;19.134;2022-07-03T01:18:35;11.07;;;9.98;;
51214;SDS011;41093;47.444;19.134;2022-07-03T01:21:07;11.18;;;10.15;;
51214;SDS011;41093;47.444;19.134;2022-07-03T01:26:02;13.50;;;10.48;;
51214;SDS011;41093;47.444;19.134;2022-07-03T01:28:29;11.15;;;10.15;;
51214;SDS011;41093;47.444;19.134;2022-07-03T01:31:01;9.95;;;9.02;;
51214;SDS011;41093;47.444;19.134;2022-07-03T01:33:31;11.15;;;10.15;;
51214;SDS011;41093;47.444;19.134;2022-07-03T01:38:32;10.88;;;9.85;;
51214;SDS011;41093;47.444;19.134;2022-07-03T01:41:00;11.45;;;9.88;;
51214;SDS011;41093;47.444;19.134;2022-07-03T01:43:28;13.00;;;10.77;;
51214;SDS011;41093;47.444;19.134;2022-07-03T01:45:59;11.00;;;9.82;;
51214;SDS011;41093;47.444;19.134;2022-07-03T01:48:26;11.13;;;10.02;;
51214;SDS011;41093;47.444;19.134;2022-07-03T01:50:53;11.55;;;10.48;;
51214;SDS011;41093;47.444;19.134;2022-07-03T01:53:21;11.60;;;10.50;;
51214;SDS011;41093;47.444;19.134;2022-07-03T01:55:50;11.65;;;10.65;;
51214;SDS011;41093;47.444;19.134;2022-07-03T01:58:23;11.80;;;10.80;;
51214;SDS011;41093;47.444;19.134;2022-07-03T02:00:57;11.60;;;10.50;;
51214;SDS011;41093;47.444;19.134;2022-07-03T02:03:28;13.45;;;10.90;;
51214;SDS011;41093;47.444;19.134;2022-07-03T02:06:06;11.15;;;10.15;;
51214;SDS011;41093;47.444;19.134;2022-07-03T02:11:23;11.07;;;10.15;;
51214;SDS011;41093;47.444;19.134;2022-07-03T02:14:06;13.02;;;11.82;;
51214;SDS011;41093;47.444;19.134;2022-07-03T02:19:41;12.30;;;11.13;;
51214;SDS011;41093;47.444;19.134;2022-07-03T02:22:14;12.30;;;11.13;;
51214;SDS011;41093;47.444;19.134;2022-07-03T02:24:44;12.13;;;11.10;;
51214;SDS011;41093;47.444;19.134;2022-07-03T02:27:31;12.27;;;11.20;;
51214;SDS011;41093;47.444;19.134;2022-07-03T02:30:07;12.23;;;11.13;;
51214;SDS011;41093;47.444;19.134;2022-07-03T02:32:36;13.25;;;11.93;;
51214;SDS011;41093;47.444;19.134;2022-07-03T02:35:13;13.75;;;12.35;;
51214;SDS011;41093;47.444;19.134;2022-07-03T02:40:28;12.18;;;10.98;;
51214;SDS011;41093;47.444;19.134;2022-07-03T02:43:17;12.65;;;11.35;;
51214;SDS011;41093;47.444;19.134;2022-07-03T02:51:35;14.18;;;12.43;;
51214;SDS011;41093;47.444;19.134;2022-07-03T02:54:09;13.30;;;11.98;;
51214;SDS011;41093;47.444;19.134;2022-07-03T02:56:46;14.65;;;12.68;;
51214;SDS011;41093;47.444;19.134;2022-07-03T03:02:43;14.38;;;12.88;;
51214;SDS011;41093;47.444;19.134;2022-07-03T03:10:32;14.88;;;13.38;;
51214;SDS011;41093;47.444;19.134;2022-07-03T03:13:03;14.93;;;13.52;;
51214;SDS011;41093;47.444;19.134;2022-07-03T03:15:31;16.08;;;14.13;;
51214;SDS011;41093;47.444;19.134;2022-07-03T03:18:05;15.55;;;13.98;;
51214;SDS011;41093;47.444;19.134;2022-07-03T03:20:36;13.98;;;12.48;;
51214;SDS011;41093;47.444;19.134;2022-07-03T03:25:50;13.40;;;12.07;;
51214;SDS011;41093;47.444;19.134;2022-07-03T03:28:17;13.65;;;12.25;;
51214;SDS011;41093;47.444;19.134;2022-07-03T03:30:43;13.77;;;12.52;;
51214;SDS011;41093;47.444;19.134;2022-07-03T03:33:10;13.75;;;12.52;;
51214;SDS011;41093;47.444;19.134;2022-07-03T03:35:36;12.18;;;11.15;;
51214;SDS011;41093;47.444;19.134;2022-07-03T03:38:03;13.93;;;12.60;;
51214;SDS011;41093;47.444;19.134;2022-07-03T03:40:32;13.00;;;11.70;;
51214;SDS011;41093;47.444;19.134;2022-07-03T03:42:59;12.45;;;11.25;;
51214;SDS011;41093;47.444;19.134;2022-07-03T03:45:25;12.30;;;11.13;;
51214;SDS011;41093;47.444;19.134;2022-07-03T03:47:51;11.57;;;10.50;;
51214;SDS011;41093;47.444;19.134;2022-07-03T03:50:17;11.73;;;10.63;;
51214;SDS011;41093;47.444;19.134;2022-07-03T03:52:43;10.32;;;9.32;;
51214;SDS011;41093;47.444;19.134;2022-07-03T03:55:09;10.68;;;9.77;;
51214;SDS011;41093;47.444;19.134;2022-07-03T03:57:35;9.80;;;9.00;;
51214;SDS011;41093;47.444;19.134;2022-07-03T04:00:02;8.95;;;8.02;;
51214;SDS011;41093;47.444;19.134;2022-07-03T04:02:29;9.38;;;8.45;;
51214;SDS011;41093;47.444;19.134;2022-07-03T04:04:55;8.38;;;7.65;;
51214;SDS011;41093;47.444;19.134;2022-07-03T04:07:20;8.25;;;7.63;;
51214;SDS011;41093;47.444;19.134;2022-07-03T04:09:46;7.20;;;6.47;;
51214;SDS011;41093;47.444;19.134;2022-07-03T04:12:12;8.40;;;7.70;;
51214;SDS011;41093;47.444;19.134;2022-07-03T04:14:38;7.95;;;7.35;;
51214;SDS011;41093;47.444;19.134;2022-07-03T04:17:03;8.43;;;7.57;;
51214;SDS011;41093;47.444;19.134;2022-07-03T04:19:29;7.78;;;7.18;;
51214;SDS011;41093;47.444;19.134;2022-07-03T04:21:55;7.53;;;6.93;;
51214;SDS011;41093;47.444;19.134;2022-07-03T04:24:21;7.75;;;7.05;;
51214;SDS011;41093;47.444;19.134;2022-07-03T04:26:47;7.38;;;6.88;;
51214;SDS011;41093;47.444;19.134;2022-07-03T04:29:13;7.38;;;6.68;;
51214;SDS011;41093;47.444;19.134;2022-07-03T04:31:39;10.75;;;9.85;;
51214;SDS011;41093;47.444;19.134;2022-07-03T04:34:04;8.48;;;7.78;;
51214;SDS011;41093;47.444;19.134;2022-07-03T04:36:30;7.95;;;7.25;;
51214;SDS011;41093;47.444;19.134;2022-07-03T04:38:56;8.65;;;7.88;;
51214;SDS011;41093;47.444;19.134;2022-07-03T04:41:22;7.90;;;7.20;;
51214;SDS011;41093;47.444;19.134;2022-07-03T04:43:47;7.97;;;7.28;;
51214;SDS011;41093;47.444;19.134;2022-07-03T04:46:13;8.38;;;7.68;;
51214;SDS011;41093;47.444;19.134;2022-07-03T04:48:39;8.57;;;7.88;;
51214;SDS011;41093;47.444;19.134;2022-07-03T04:51:05;7.57;;;7.07;;
51214;SDS011;41093;47.444;19.134;2022-07-03T04:53:31;8.05;;;7.35;;
51214;SDS011;41093;47.444;19.134;2022-07-03T04:55:57;7.30;;;6.70;;
51214;SDS011;41093;47.444;19.134;2022-07-03T04:58:22;7.05;;;6.53;;
51214;SDS011;41093;47.444;19.134;2022-07-03T05:00:48;7.40;;;6.80;;
51214;SDS011;41093;47.444;19.134;2022-07-03T05:03:14;7.10;;;6.43;;
51214;SDS011;41093;47.444;19.134;2022-07-03T05:05:40;7.15;;;6.43;;
51214;SDS011;41093;47.444;19.134;2022-07-03T05:08:05;8.23;;;6.65;;
51214;SDS011;41093;47.444;19.134;2022-07-03T05:10:31;6.38;;;5.97;;
51214;SDS011;41093;47.444;19.134;2022-07-03T05:12:57;7.18;;;6.57;;
51214;SDS011;41093;47.444;19.134;2022-07-03T05:15:23;6.75;;;6.20;;
51214;SDS011;41093;47.444;19.134;2022-07-03T05:17:49;6.50;;;5.97;;
51214;SDS011;41093;47.444;19.134;2022-07-03T05:20:15;5.82;;;5.45;;
51214;SDS011;41093;47.444;19.134;2022-07-03T05:22:50;7.40;;;6.05;;
51214;SDS011;41093;47.444;19.134;2022-07-03T05:25:17;6.43;;;6.00;;
51214;SDS011;41093;47.444;19.134;2022-07-03T05:27:43;6.85;;;6.25;;
51214;SDS011;41093;47.444;19.134;2022-07-03T05:30:09;6.07;;;5.68;;
51214;SDS011;41093;47.444;19.134;2022-07-03T05:32:35;7.28;;;6.68;;
51214;SDS011;41093;47.444;19.134;2022-07-03T05:35:01;6.55;;;5.93;;
51214;SDS011;41093;47.444;19.134;2022-07-03T05:37:28;6.75;;;6.25;;
51214;SDS011;41093;47.444;19.134;2022-07-03T05:39:53;6.85;;;6.35;;
51214;SDS011;41093;47.444;19.134;2022-07-03T05:42:19;6.10;;;5.70;;
51214;SDS011;41093;47.444;19.134;2022-07-03T05:44:45;6.60;;;6.10;;
51214;SDS011;41093;47.444;19.134;2022-07-03T05:47:11;6.68;;;6.18;;
51214;SDS011;41093;47.444;19.134;2022-07-03T05:49:36;6.68;;;6.25;;
51214;SDS011;41093;47.444;19.134;2022-07-03T05:52:02;6.53;;;5.95;;
51214;SDS011;41093;47.444;19.134;2022-07-03T05:54:28;7.13;;;6.47;;
51214;SDS011;41093;47.444;19.134;2022-07-03T05:56:54;7.03;;;6.53;;
51214;SDS011;41093;47.444;19.134;2022-07-03T05:59:20;6.32;;;5.75;;
51214;SDS011;41093;47.444;19.134;2022-07-03T06:01:45;6.80;;;6.32;;
51214;SDS011;41093;47.444;19.134;2022-07-03T06:04:11;6.93;;;6.30;;
51214;SDS011;41093;47.444;19.134;2022-07-03T06:06:37;6.75;;;5.95;;
51214;SDS011;41093;47.444;19.134;2022-07-03T06:09:03;6.30;;;5.90;;
51214;SDS011;41093;47.444;19.134;2022-07-03T06:11:28;6.53;;;6.03;;
51214;SDS011;41093;47.444;19.134;2022-07-03T06:13:54;7.45;;;6.88;;
51214;SDS011;41093;47.444;19.134;2022-07-03T06:16:20;6.30;;;5.80;;
51214;SDS011;41093;47.444;19.134;2022-07-03T06:18:46;6.38;;;5.78;;
51214;SDS011;41093;47.444;19.134;2022-07-03T06:21:13;6.25;;;5.85;;
51214;SDS011;41093;47.444;19.134;2022-07-03T06:23:38;6.80;;;6.18;;
51214;SDS011;41093;47.444;19.134;2022-07-03T06:26:04;6.85;;;6.45;;
51214;SDS011;41093;47.444;19.134;2022-07-03T06:28:30;7.00;;;6.40;;
51214;SDS011;41093;47.444;19.134;2022-07-03T06:30:56;7.03;;;6.63;;
51214;SDS011;41093;47.444;19.134;2022-07-03T06:33:22;6.95;;;6.40;;
51214;SDS011;41093;47.444;19.134;2022-07-03T06:35:48;6.82;;;6.32;;
51214;SDS011;41093;47.444;19.134;2022-07-03T06:38:14;7.07;;;6.38;;
51214;SDS011;41093;47.444;19.134;2022-07-03T06:40:40;6.20;;;5.85;;
51214;SDS011;41093;47.444;19.134;2022-07-03T06:43:05;6.97;;;6.47;;
51214;SDS011;41093;47.444;19.134;2022-07-03T06:45:31;7.30;;;6.85;;
51214;SDS011;41093;47.444;19.134;2022-07-03T06:47:57;6.93;;;6.43;;
51214;SDS011;41093;47.444;19.134;2022-07-03T06:50:23;6.88;;;6.28;;
51214;SDS011;41093;47.444;19.134;2022-07-03T06:52:48;6.13;;;5.63;;
51214;SDS011;41093;47.444;19.134;2022-07-03T06:55:14;6.57;;;6.18;;
51214;SDS011;41093;47.444;19.134;2022-07-03T06:57:40;6.05;;;5.55;;
51214;SDS011;41093;47.444;19.134;2022-07-03T07:00:06;6.72;;;6.20;;
51214;SDS011;41093;47.444;19.134;2022-07-03T07:02:32;7.22;;;6.82;;
51214;SDS011;41093;47.444;19.134;2022-07-03T07:04:58;6.78;;;6.20;;
51214;SDS011;41093;47.444;19.134;2022-07-03T07:07:24;6.55;;;6.05;;
51214;SDS011;41093;47.444;19.134;2022-07-03T07:09:50;6.63;;;6.22;;
51214;SDS011;41093;47.444;19.134;2022-07-03T07:12:16;7.13;;;6.72;;
51214;SDS011;41093;47.444;19.134;2022-07-03T07:14:42;6.72;;;6.40;;
51214;SDS011;41093;47.444;19.134;2022-07-03T07:17:08;7.05;;;6.55;;
51214;SDS011;41093;47.444;19.134;2022-07-03T07:19:34;7.65;;;6.70;;
51214;SDS011;41093;47.444;19.134;2022-07-03T07:21:59;7.70;;;7.05;;
51214;SDS011;41093;47.444;19.134;2022-07-03T07:24:26;8.95;;;6.60;;
51214;SDS011;41093;47.444;19.134;2022-07-03T07:26:53;7.40;;;6.90;;
51214;SDS011;41093;47.444;19.134;2022-07-03T07:29:19;7.32;;;6.93;;
51214;SDS011;41093;47.444;19.134;2022-07-03T07:31:44;7.13;;;6.72;;
51214;SDS011;41093;47.444;19.134;2022-07-03T07:34:10;7.45;;;7.00;;
51214;SDS011;41093;47.444;19.134;2022-07-03T07:36:37;7.68;;;7.13;;
51214;SDS011;41093;47.444;19.134;2022-07-03T07:39:04;7.75;;;7.20;;
51214;SDS011;41093;47.444;19.134;2022-07-03T07:41:29;7.32;;;6.82;;
51214;SDS011;41093;47.444;19.134;2022-07-03T07:43:55;7.65;;;7.15;;
51214;SDS011;41093;47.444;19.134;2022-07-03T07:46:21;7.10;;;6.70;;
51214;SDS011;41093;47.444;19.134;2022-07-03T07:48:46;7.97;;;7.28;;
51214;SDS011;41093;47.444;19.134;2022-07-03T07:51:12;7.47;;;7.07;;
51214;SDS011;41093;47.444;19.134;2022-07-03T07:53:38;7.28;;;6.88;;
51214;SDS011;41093;47.444;19.134;2022-07-03T07:56:04;7.78;;;7.35;;
51214;SDS011;41093;47.444;19.134;2022-07-03T07:58:30;6.97;;;6.47;;
51214;SDS011;41093;47.444;19.134;2022-07-03T08:00:55;8.13;;;7.63;;
51214;SDS011;41093;47.444;19.134;2022-07-03T08:03:40;7.55;;;7.15;;
51214;SDS011;41093;47.444;19.134;2022-07-03T08:06:24;7.78;;;7.28;;
51214;SDS011;41093;47.444;19.134;2022-07-03T08:08:50;7.63;;;7.13;;
51214;SDS011;41093;47.444;19.134;2022-07-03T08:11:16;7.63;;;7.13;;
51214;SDS011;41093;47.444;19.134;2022-07-03T08:13:41;7.70;;;7.20;;
51214;SDS011;41093;47.444;19.134;2022-07-03T08:16:07;7.07;;;6.60;;
51214;SDS011;41093;47.444;19.134;2022-07-03T08:18:33;7.63;;;7.05;;
51214;SDS011;41093;47.444;19.134;2022-07-03T08:20:58;7.60;;;7.20;;
51214;SDS011;41093;47.444;19.134;2022-07-03T08:23:25;7.80;;;7.40;;
51214;SDS011;41093;47.444;19.134;2022-07-03T08:25:50;8.45;;;7.90;;
51214;SDS011;41093;47.444;19.134;2022-07-03T08:28:16;8.60;;;8.10;;
51214;SDS011;41093;47.444;19.134;2022-07-03T08:30:42;7.70;;;7.15;;
51214;SDS011;41093;47.444;19.134;2022-07-03T08:33:08;8.57;;;7.78;;
51214;SDS011;41093;47.444;19.134;2022-07-03T08:35:33;7.68;;;7.22;;
51214;SDS011;41093;47.444;19.134;2022-07-03T08:37:59;8.32;;;7.72;;
51214;SDS011;41093;47.444;19.134;2022-07-03T08:40:25;8.70;;;8.15;;
51214;SDS011;41093;47.444;19.134;2022-07-03T08:45:22;8.07;;;7.57;;
51214;SDS011;41093;47.444;19.134;2022-07-03T08:47:49;8.23;;;7.65;;
51214;SDS011;41093;47.444;19.134;2022-07-03T08:50:18;8.30;;;7.80;;
51214;SDS011;41093;47.444;19.134;2022-07-03T08:52:45;8.93;;;8.30;;
51214;SDS011;41093;47.444;19.134;2022-07-03T08:55:12;8.38;;;7.88;;
51214;SDS011;41093;47.444;19.134;2022-07-03T08:57:39;7.93;;;7.53;;
51214;SDS011;41093;47.444;19.134;2022-07-03T09:00:08;7.95;;;7.55;;
51214;SDS011;41093;47.444;19.134;2022-07-03T09:02:36;7.63;;;7.13;;
51214;SDS011;41093;47.444;19.134;2022-07-03T09:05:07;8.10;;;7.60;;
51214;SDS011;41093;47.444;19.134;2022-07-03T09:07:37;7.95;;;7.35;;
51214;SDS011;41093;47.444;19.134;2022-07-03T09:10:04;7.15;;;6.75;;
51214;SDS011;41093;47.444;19.134;2022-07-03T09:12:32;6.88;;;6.57;;
51214;SDS011;41093;47.444;19.134;2022-07-03T09:15:05;7.88;;;7.38;;
51214;SDS011;41093;47.444;19.134;2022-07-03T09:17:32;8.07;;;7.47;;
51214;SDS011;41093;47.444;19.134;2022-07-03T09:19:59;7.80;;;7.30;;
51214;SDS011;41093;47.444;19.134;2022-07-03T09:22:31;8.40;;;7.80;;
51214;SDS011;41093;47.444;19.134;2022-07-03T09:25:08;7.95;;;7.55;;
51214;SDS011;41093;47.444;19.134;2022-07-03T09:27:51;7.53;;;7.03;;
51214;SDS011;41093;47.444;19.134;2022-07-03T09:30:18;7.55;;;7.05;;
51214;SDS011;41093;47.444;19.134;2022-07-03T09:32:45;8.00;;;7.60;;
51214;SDS011;41093;47.444;19.134;2022-07-03T09:35:19;7.60;;;7.10;;
51214;SDS011;41093;47.444;19.134;2022-07-03T09:37:58;7.47;;;7.00;;
51214;SDS011;41093;47.444;19.134;2022-07-03T09:43:15;6.95;;;6.55;;
51214;SDS011;41093;47.444;19.134;2022-07-03T09:45:51;7.05;;;6.55;;
51214;SDS011;41093;47.444;19.134;2022-07-03T09:48:35;7.13;;;6.68;;
51214;SDS011;41093;47.444;19.134;2022-07-03T09:53:45;7.10;;;6.70;;
51214;SDS011;41093;47.444;19.134;2022-07-03T09:56:21;6.88;;;6.43;;
51214;SDS011;41093;47.444;19.134;2022-07-03T10:01:46;7.40;;;6.78;;
51214;SDS011;41093;47.444;19.134;2022-07-03T10:04:13;7.15;;;6.75;;
51214;SDS011;41093;47.444;19.134;2022-07-03T10:06:47;6.25;;;5.95;;
51214;SDS011;41093;47.444;19.134;2022-07-03T10:09:17;6.78;;;6.38;;
51214;SDS011;41093;47.444;19.134;2022-07-03T10:11:48;6.50;;;6.20;;
51214;SDS011;41093;47.444;19.134;2022-07-03T10:14:15;6.30;;;5.90;;
51214;SDS011;41093;47.444;19.134;2022-07-03T10:16:42;6.50;;;6.00;;
51214;SDS011;41093;47.444;19.134;2022-07-03T10:19:16;6.20;;;5.90;;
51214;SDS011;41093;47.444;19.134;2022-07-03T10:21:53;6.13;;;5.72;;
51214;SDS011;41093;47.444;19.134;2022-07-03T10:24:21;6.50;;;6.15;;
51214;SDS011;41093;47.444;19.134;2022-07-03T10:26:49;6.47;;;6.07;;
51214;SDS011;41093;47.444;19.134;2022-07-03T10:29:16;6.38;;;5.88;;
51214;SDS011;41093;47.444;19.134;2022-07-03T10:31:46;6.35;;;5.95;;
51214;SDS011;41093;47.444;19.134;2022-07-03T10:34:23;6.25;;;5.95;;
51214;SDS011;41093;47.444;19.134;2022-07-03T10:37:02;7.13;;;6.18;;
51214;SDS011;41093;47.444;19.134;2022-07-03T10:39:35;6.70;;;6.30;;
51214;SDS011;41093;47.444;19.134;2022-07-03T10:42:16;6.90;;;6.40;;
51214;SDS011;41093;47.444;19.134;2022-07-03T10:45:08;6.00;;;5.60;;
51214;SDS011;41093;47.444;19.134;2022-07-03T10:47:44;7.07;;;5.88;;
51214;SDS011;41093;47.444;19.134;2022-07-03T10:50:12;5.22;;;4.82;;
51214;SDS011;41093;47.444;19.134;2022-07-03T10:52:41;5.15;;;4.38;;
51214;SDS011;41093;47.444;19.134;2022-07-03T10:55:08;4.80;;;4.50;;
51214;SDS011;41093;47.444;19.134;2022-07-03T10:57:38;6.70;;;4.20;;
51214;SDS011;41093;47.444;19.134;2022-07-03T11:00:17;4.70;;;4.40;;
51214;SDS011;41093;47.444;19.134;2022-07-03T11:02:48;4.78;;;4.32;;
51214;SDS011;41093;47.444;19.134;2022-07-03T11:08:04;5.57;;;4.40;;
51214;SDS011;41093;47.444;19.134;2022-07-03T11:10:32;5.32;;;4.78;;
51214;SDS011;41093;47.444;19.134;2022-07-03T11:13:00;4.95;;;4.55;;
51214;SDS011;41093;47.444;19.134;2022-07-03T11:15:34;5.43;;;4.57;;
51214;SDS011;41093;47.444;19.134;2022-07-03T11:25:41;7.05;;;5.30;;
51214;SDS011;41093;47.444;19.134;2022-07-03T11:33:44;6.57;;;4.93;;
51214;SDS011;41093;47.444;19.134;2022-07-03T11:38:48;5.43;;;4.63;;
51214;SDS011;41093;47.444;19.134;2022-07-03T11:41:25;5.97;;;5.28;;
51214;SDS011;41093;47.444;19.134;2022-07-03T11:43:53;6.90;;;5.18;;
51214;SDS011;41093;47.444;19.134;2022-07-03T11:46:31;5.32;;;4.93;;
51214;SDS011;41093;47.444;19.134;2022-07-03T11:49:08;5.45;;;4.97;;
51214;SDS011;41093;47.444;19.134;2022-07-03T11:51:39;5.68;;;4.90;;
51214;SDS011;41093;47.444;19.134;2022-07-03T11:54:06;5.30;;;4.82;;
51214;SDS011;41093;47.444;19.134;2022-07-03T11:56:33;4.80;;;4.40;;
51214;SDS011;41093;47.444;19.134;2022-07-03T11:59:01;4.85;;;4.30;;
51214;SDS011;41093;47.444;19.134;2022-07-03T12:04:09;5.07;;;4.68;;
51214;SDS011;41093;47.444;19.134;2022-07-03T12:06:44;7.90;;;5.63;;
51214;SDS011;41093;47.444;19.134;2022-07-03T12:09:14;5.00;;;4.60;;
51214;SDS011;41093;47.444;19.134;2022-07-03T12:12:04;5.85;;;4.35;;
51214;SDS011;41093;47.444;19.134;2022-07-03T12:17:03;4.90;;;4.50;;
51214;SDS011;41093;47.444;19.134;2022-07-03T12:19:30;4.93;;;4.47;;
51214;SDS011;41093;47.444;19.134;2022-07-03T12:21:55;6.20;;;4.45;;
51214;SDS011;41093;47.444;19.134;2022-07-03T12:24:22;7.22;;;4.38;;
51214;SDS011;41093;47.444;19.134;2022-07-03T12:26:48;7.25;;;5.10;;
51214;SDS011;41093;47.444;19.134;2022-07-03T12:29:15;5.53;;;4.60;;
51214;SDS011;41093;47.444;19.134;2022-07-03T12:31:42;5.55;;;4.43;;
51214;SDS011;41093;47.444;19.134;2022-07-03T12:34:10;5.30;;;4.80;;
51214;SDS011;41093;47.444;19.134;2022-07-03T12:36:37;4.88;;;4.47;;
51214;SDS011;41093;47.444;19.134;2022-07-03T12:39:03;4.75;;;4.28;;
51214;SDS011;41093;47.444;19.134;2022-07-03T12:41:29;4.97;;;4.47;;
51214;SDS011;41093;47.444;19.134;2022-07-03T12:43:57;5.05;;;4.65;;
51214;SDS011;41093;47.444;19.134;2022-07-03T12:46:28;9.68;;;4.75;;
51214;SDS011;41093;47.444;19.134;2022-07-03T12:48:59;5.50;;;4.63;;
51214;SDS011;41093;47.444;19.134;2022-07-03T12:51:48;6.95;;;4.32;;
51214;SDS011;41093;47.444;19.134;2022-07-03T12:54:22;5.30;;;3.90;;
51214;SDS011;41093;47.444;19.134;2022-07-03T12:57:16;6.35;;;3.92;;
51214;SDS011;41093;47.444;19.134;2022-07-03T13:00:03;5.63;;;4.05;;
51214;SDS011;41093;47.444;19.134;2022-07-03T13:02:31;5.72;;;3.80;;
51214;SDS011;41093;47.444;19.134;2022-07-03T13:04:58;6.85;;;3.63;;
51214;SDS011;41093;47.444;19.134;2022-07-03T13:07:28;4.88;;;3.13;;
51214;SDS011;41093;47.444;19.134;2022-07-03T13:09:55;3.67;;;3.35;;
51214;SDS011;41093;47.444;19.134;2022-07-03T13:12:25;4.80;;;3.38;;
51214;SDS011;41093;47.444;19.134;2022-07-03T13:14:55;6.13;;;3.72;;
51214;SDS011;41093;47.444;19.134;2022-07-03T13:17:21;3.88;;;3.50;;
51214;SDS011;41093;47.444;19.134;2022-07-03T13:19:47;4.10;;;3.53;;
51214;SDS011;41093;47.444;19.134;2022-07-03T13:22:13;4.05;;;2.80;;
51214;SDS011;41093;47.444;19.134;2022-07-03T13:24:38;7.53;;;2.80;;
51214;SDS011;41093;47.444;19.134;2022-07-03T13:27:05;3.00;;;2.35;;
51214;SDS011;41093;47.444;19.134;2022-07-03T13:29:31;3.38;;;2.67;;
51214;SDS011;41093;47.444;19.134;2022-07-03T13:31:57;3.97;;;2.38;;
51214;SDS011;41093;47.444;19.134;2022-07-03T13:34:23;8.65;;;2.60;;
51214;SDS011;41093;47.444;19.134;2022-07-03T13:36:48;4.65;;;3.15;;
51214;SDS011;41093;47.444;19.134;2022-07-03T13:39:14;4.93;;;3.17;;
51214;SDS011;41093;47.444;19.134;2022-07-03T13:41:40;6.28;;;3.05;;
51214;SDS011;41093;47.444;19.134;2022-07-03T13:44:06;5.40;;;3.00;;
51214;SDS011;41093;47.444;19.134;2022-07-03T13:46:32;5.15;;;2.70;;
51214;SDS011;41093;47.444;19.134;2022-07-03T13:48:58;5.70;;;3.20;;
51214;SDS011;41093;47.444;19.134;2022-07-03T13:51:23;3.45;;;3.15;;
51214;SDS011;41093;47.444;19.134;2022-07-03T13:53:49;5.07;;;3.08;;
51214;SDS011;41093;47.444;19.134;2022-07-03T13:56:16;4.47;;;2.92;;
51214;SDS011;41093;47.444;19.134;2022-07-03T13:58:43;4.40;;;2.80;;
51214;SDS011;41093;47.444;19.134;2022-07-03T14:01:09;2.80;;;2.60;;
51214;SDS011;41093;47.444;19.134;2022-07-03T14:03:35;4.78;;;2.58;;
51214;SDS011;41093;47.444;19.134;2022-07-03T14:06:00;6.30;;;3.03;;
51214;SDS011;41093;47.444;19.134;2022-07-03T14:08:26;4.22;;;2.47;;
51214;SDS011;41093;47.444;19.134;2022-07-03T14:10:52;7.05;;;3.17;;
51214;SDS011;41093;47.444;19.134;2022-07-03T14:13:18;4.00;;;2.85;;
51214;SDS011;41093;47.444;19.134;2022-07-03T14:15:44;4.25;;;2.53;;
51214;SDS011;41093;47.444;19.134;2022-07-03T14:18:10;4.43;;;2.40;;
51214;SDS011;41093;47.444;19.134;2022-07-03T14:20:35;3.90;;;2.78;;
51214;SDS011;41093;47.444;19.134;2022-07-03T14:23:01;4.68;;;2.60;;
51214;SDS011;41093;47.444;19.134;2022-07-03T14:25:27;5.22;;;2.47;;
51214;SDS011;41093;47.444;19.134;2022-07-03T14:27:53;5.60;;;2.60;;
51214;SDS011;41093;47.444;19.134;2022-07-03T14:30:37;4.85;;;2.90;;
51214;SDS011;41093;47.444;19.134;2022-07-03T14:33:21;7.05;;;2.92;;
51214;SDS011;41093;47.444;19.134;2022-07-03T14:35:47;4.60;;;2.50;;
51214;SDS011;41093;47.444;19.134;2022-07-03T14:38:12;2.70;;;2.28;;
51214;SDS011;41093;47.444;19.134;2022-07-03T14:40:38;4.30;;;2.60;;
51214;SDS011;41093;47.444;19.134;2022-07-03T14:43:04;5.40;;;2.55;;
51214;SDS011;41093;47.444;19.134;2022-07-03T14:45:30;4.93;;;2.95;;
51214;SDS011;41093;47.444;19.134;2022-07-03T14:47:55;4.82;;;2.67;;
51214;SDS011;41093;47.444;19.134;2022-07-03T14:50:21;4.95;;;2.63;;
51214;SDS011;41093;47.444;19.134;2022-07-03T14:52:47;3.90;;;2.60;;
51214;SDS011;41093;47.444;19.134;2022-07-03T14:55:13;4.30;;;2.80;;
51214;SDS011;41093;47.444;19.134;2022-07-03T14:58:04;7.30;;;2.88;;
51214;SDS011;41093;47.444;19.134;2022-07-03T15:00:37;3.92;;;2.67;;
51214;SDS011;41093;47.444;19.134;2022-07-03T15:03:07;6.53;;;3.00;;
51214;SDS011;41093;47.444;19.134;2022-07-03T15:05:40;6.22;;;3.22;;
51214;SDS011;41093;47.444;19.134;2022-07-03T15:08:24;5.88;;;2.95;;
51214;SDS011;41093;47.444;19.134;2022-07-03T15:10:55;2.83;;;2.38;;
51214;SDS011;41093;47.444;19.134;2022-07-03T15:13:26;2.70;;;2.50;;
51214;SDS011;41093;47.444;19.134;2022-07-03T15:15:52;9.18;;;2.78;;
51214;SDS011;41093;47.444;19.134;2022-07-03T15:18:19;4.88;;;3.25;;
51214;SDS011;41093;47.444;19.134;2022-07-03T15:20:46;7.72;;;2.88;;
51214;SDS011;41093;47.444;19.134;2022-07-03T15:23:14;4.50;;;2.60;;
51214;SDS011;41093;47.444;19.134;2022-07-03T15:25:44;2.75;;;2.17;;
51214;SDS011;41093;47.444;19.134;2022-07-03T15:28:11;4.97;;;2.85;;
51214;SDS011;41093;47.444;19.134;2022-07-03T15:30:37;6.05;;;3.42;;
51214;SDS011;41093;47.444;19.134;2022-07-03T15:33:10;4.70;;;3.13;;
51214;SDS011;41093;47.444;19.134;2022-07-03T15:35:36;2.95;;;2.30;;
51214;SDS011;41093;47.444;19.134;2022-07-03T15:38:12;4.78;;;2.55;;
51214;SDS011;41093;47.444;19.134;2022-07-03T15:40:51;6.70;;;3.10;;
51214;SDS011;41093;47.444;19.134;2022-07-03T15:48:42;5.38;;;2.38;;
51214;SDS011;41093;47.444;19.134;2022-07-03T15:51:22;3.40;;;2.53;;
51214;SDS011;41093;47.444;19.134;2022-07-03T15:53:59;3.58;;;2.47;;